Terminal Aerodrome Forecast
Issued by NWS

Current Version | Previous Version | Graphics & Text | Print | Product List | Glossary On
Versions: 1 2 3 4 5 6 7 8 9 10 11 12 13 14 15 16 17 18 19 20 21 22 23
000
FTUS41 KRNK 210539
TAFLWB
TAF
KLWB 210539Z 2106/2206 12005KT P6SM OVC010
     FM210900 12005KT P6SM OVC008
     FM211400 10004KT P6SM OVC015
     FM211600 15006KT P6SM -SHRA OVC020
     FM211900 16006KT 3SM SHRA OVC015=

USA.gov is the U.S. government's official web portal to all federal, state and local government web resources and services.